Kjevik Flyklubb søker instruktør PDF Skriv ut E-post
Skrevet av Dmytro Yakovenko   
fredag 09. februar 2018 12:55

FLYINSTRUKTØR SØKES!

Kjevik flyklubb går et hektisk år i møte og har behov for en ekstra flyinstruktør til PPL-A på vårt PA-28 med Avidyne glasscockpit.

Har du lyst å være en del av et godt klubbmiljø og i tillegg ønsker å lære andre å fly på Sørlandet? Har du FI (A) rettighet, eller kjenner noen som har det, kan det hende du/dere er den vi søker.

Vi har en solid elevgruppe med potensial til enda flere.

Ta kontakt på post (at) kjevikflyklubb.no eller direkte med skolesjefen Morten Borgen snarest for en nærmere flyprat. Vi gleder oss til å høre fra deg!

 
 
METAR
2018/10/18 09:20 ENCN 180920Z 21005KT CAVOK 10/06 Q1023
TAF
2018/10/18 09:38 TAF ENCN 180800Z 1809/1818 28008KT CAVOK
LN-KFK
Operativ VFR-natt
VFR dag
07:29 - 18:56
Brannvakt
Inaktiv
Banner
Banner
Banner
Banner
Banner